createdAt,value
2022-07-31T00:02:01.745Z,3.78
2022-07-31T00:04:42.824Z,4.03
2022-07-31T00:07:22.798Z,5.80
2022-07-31T00:10:09.749Z,5.25
2022-07-31T00:12:43.662Z,3.08
2022-07-31T00:15:31.728Z,6.05
2022-07-31T00:18:05.784Z,3.20
2022-07-31T00:20:53.735Z,3.35
2022-07-31T00:23:33.748Z,3.85
2022-07-31T00:26:21.731Z,6.78
2022-07-31T00:28:55.334Z,3.05
2022-07-31T00:31:42.740Z,2.63
2022-07-31T00:34:16.283Z,6.32
2022-07-31T00:37:04.018Z,5.22
2022-07-31T00:39:38.458Z,4.47
2022-07-31T00:42:32.780Z,5.00
2022-07-31T00:45:07.054Z,6.28
2022-07-31T00:47:56.029Z,3.38
2022-07-31T00:50:29.721Z,6.93
2022-07-31T00:53:17.766Z,4.22
2022-07-31T00:55:52.324Z,3.20
2022-07-31T00:58:39.733Z,4.53
2022-07-31T01:01:13.757Z,4.10
2022-07-31T01:04:01.767Z,2.83
2022-07-31T01:06:42.803Z,5.80
2022-07-31T01:09:30.762Z,6.47
2022-07-31T01:12:29.443Z,6.15
2022-07-31T01:15:18.761Z,4.90
2022-07-31T01:17:53.674Z,6.97
2022-07-31T01:20:42.745Z,1.83
2022-07-31T01:23:32.773Z,4.43
2022-07-31T01:26:09.815Z,3.90
2022-07-31T01:29:04.777Z,4.97
2022-07-31T01:31:48.837Z,3.00
2022-07-31T01:34:42.793Z,4.93
2022-07-31T01:37:21.864Z,5.90
2022-07-31T01:40:12.748Z,6.60
2022-07-31T01:42:48.830Z,5.85
2022-07-31T01:45:37.768Z,4.95
2022-07-31T01:48:11.902Z,8.00
2022-07-31T01:50:59.762Z,4.22
2022-07-31T01:53:42.751Z,4.05
2022-07-31T01:56:30.786Z,4.95
2022-07-31T01:59:05.844Z,3.50
2022-07-31T02:02:09.785Z,4.20
2022-07-31T02:04:53.761Z,4.78
2022-07-31T02:07:50.815Z,2.47
2022-07-31T02:10:44.782Z,2.22
2022-07-31T02:13:33.811Z,5.88
2022-07-31T02:16:07.907Z,4.33
2022-07-31T02:18:57.777Z,3.30
2022-07-31T02:21:39.794Z,6.63
2022-07-31T02:24:33.772Z,5.68
2022-07-31T02:27:57.941Z,4.95
2022-07-31T02:30:16.227Z,8.20
2022-07-31T02:33:03.815Z,4.85
2022-07-31T02:35:45.234Z,2.63
2022-07-31T02:38:33.786Z,2.47
2022-07-31T02:41:08.868Z,2.38
2022-07-31T02:43:56.794Z,3.72
2022-07-31T02:46:30.877Z,8.02
2022-07-31T02:49:22.841Z,4.80
2022-07-31T02:52:04.026Z,4.30
2022-07-31T02:54:51.830Z,1.60
2022-07-31T02:57:39.795Z,3.42
2022-07-31T03:00:33.953Z,4.75
2022-07-31T03:03:21.803Z,1.75
2022-07-31T03:05:55.905Z,4.35
2022-07-31T03:08:43.805Z,4.85
2022-07-31T03:11:24.819Z,4.50
2022-07-31T03:14:14.824Z,2.33
2022-07-31T03:16:55.812Z,3.00
2022-07-31T03:19:43.825Z,4.53
2022-07-31T03:22:24.832Z,10.52
2022-07-31T03:25:19.990Z,5.10
2022-07-31T03:28:00.805Z,6.60
2022-07-31T03:30:41.882Z,5.82
2022-07-31T03:33:21.812Z,5.25
2022-07-31T03:36:02.892Z,5.13
2022-07-31T03:38:50.931Z,5.78
2022-07-31T03:41:38.944Z,9.55
2022-07-31T03:44:19.821Z,5.90
2022-07-31T03:47:00.893Z,2.65
2022-07-31T03:49:40.805Z,4.47
2022-07-31T03:52:27.858Z,4.40
2022-07-31T03:55:02.230Z,5.10
2022-07-31T03:57:51.843Z,3.60
2022-07-31T04:00:27.856Z,4.28
2022-07-31T04:03:23.822Z,4.55
2022-07-31T04:05:57.805Z,4.97
2022-07-31T04:08:45.841Z,3.00
2022-07-31T04:11:19.411Z,6.18
2022-07-31T04:14:06.842Z,4.63
2022-07-31T04:16:40.778Z,3.10
2022-07-31T04:19:28.836Z,5.25
2022-07-31T04:22:09.847Z,7.00
2022-07-31T04:24:50.142Z,4.07
2022-07-31T04:27:31.845Z,4.45
2022-07-31T04:30:13.035Z,7.05
2022-07-31T04:32:52.847Z,6.47
2022-07-31T04:35:33.964Z,5.20
2022-07-31T04:38:15.845Z,6.90
2022-07-31T04:40:56.909Z,4.30
2022-07-31T04:43:36.866Z,2.90
2022-07-31T04:46:17.308Z,3.90
2022-07-31T04:48:58.894Z,4.72
2022-07-31T04:51:46.835Z,6.28
2022-07-31T04:54:26.844Z,5.10
2022-07-31T04:57:18.461Z,4.72
2022-07-31T04:59:57.802Z,3.17
2022-07-31T05:02:47.876Z,2.75
2022-07-31T05:05:21.778Z,5.90
2022-07-31T05:08:08.864Z,3.53
2022-07-31T05:11:01.333Z,2.88
2022-07-31T05:13:48.863Z,3.38
2022-07-31T05:16:23.226Z,5.38
2022-07-31T05:19:14.601Z,2.42
2022-07-31T05:21:53.599Z,3.88
2022-07-31T05:24:41.872Z,5.38
2022-07-31T05:27:15.443Z,5.32
2022-07-31T05:30:03.888Z,3.08
2022-07-31T05:32:37.845Z,3.50
2022-07-31T05:35:24.874Z,4.63
2022-07-31T05:38:04.871Z,3.60
2022-07-31T05:43:32.935Z,2.58
2022-07-31T05:46:20.873Z,5.18
2022-07-31T05:49:00.953Z,4.03
2022-07-31T05:51:48.875Z,2.70
2022-07-31T05:54:23.291Z,2.67
2022-07-31T05:57:09.873Z,5.20
2022-07-31T05:59:43.832Z,5.80
2022-07-31T06:02:31.887Z,4.55
2022-07-31T06:05:12.884Z,2.33
2022-07-31T06:07:59.903Z,2.08
2022-07-31T06:10:39.880Z,4.15
2022-07-31T06:13:27.937Z,2.50
2022-07-31T06:16:03.757Z,4.82
2022-07-31T06:18:51.902Z,4.83
2022-07-31T06:21:30.415Z,2.33
2022-07-31T06:24:11.891Z,2.75
2022-07-31T06:26:46.992Z,2.55
2022-07-31T06:29:40.615Z,1.90
2022-07-31T06:32:22.966Z,2.92
2022-07-31T06:35:04.017Z,2.08
2022-07-31T06:37:45.009Z,3.72
2022-07-31T06:40:24.888Z,7.65
2022-07-31T06:43:06.980Z,7.45
2022-07-31T06:45:52.294Z,9.23
2022-07-31T06:48:32.976Z,2.70
2022-07-31T06:51:30.262Z,1.92
2022-07-31T06:54:19.915Z,9.13
2022-07-31T06:57:00.911Z,5.55
2022-07-31T06:59:48.908Z,2.80
2022-07-31T07:02:28.900Z,4.20
2022-07-31T07:05:09.989Z,1.73
2022-07-31T07:07:50.947Z,3.03
2022-07-31T07:10:31.964Z,3.78
2022-07-31T07:13:11.926Z,1.75
2022-07-31T07:15:59.923Z,6.85
2022-07-31T07:18:39.908Z,5.75
2022-07-31T07:21:22.121Z,3.53
2022-07-31T07:24:01.908Z,4.20
2022-07-31T07:26:49.916Z,3.58
2022-07-31T07:29:30.918Z,3.83
2022-07-31T07:32:13.291Z,3.67
2022-07-31T07:34:59.797Z,3.30
2022-07-31T07:37:40.985Z,1.98
2022-07-31T07:40:24.217Z,2.35
2022-07-31T07:43:11.927Z,2.97
2022-07-31T07:45:51.961Z,2.60
2022-07-31T07:48:34.050Z,6.88
2022-07-31T07:51:20.921Z,5.00
2022-07-31T07:54:08.915Z,2.05
2022-07-31T07:56:51.931Z,6.30
2022-07-31T07:59:39.970Z,5.07
2022-07-31T08:02:19.972Z,1.98
2022-07-31T08:05:01.044Z,3.47
2022-07-31T08:07:43.935Z,3.83
2022-07-31T08:10:31.956Z,5.18
2022-07-31T08:13:05.830Z,4.38
2022-07-31T08:15:53.953Z,4.25
2022-07-31T08:18:33.996Z,2.95
2022-07-31T08:21:15.128Z,2.55
2022-07-31T08:23:55.938Z,2.22
2022-07-31T08:27:01.953Z,1.83
2022-07-31T08:29:42.862Z,2.13
2022-07-31T08:32:30.959Z,2.78
2022-07-31T08:35:04.807Z,1.98
2022-07-31T08:38:03.300Z,5.60
2022-07-31T08:40:45.959Z,2.17
2022-07-31T08:44:02.510Z,4.45
2022-07-31T08:46:53.938Z,3.03
2022-07-31T08:49:46.936Z,1.40
2022-07-31T08:52:37.974Z,2.20
2022-07-31T08:55:56.794Z,5.10
2022-07-31T08:58:20.265Z,2.90
2022-07-31T09:01:08.073Z,3.08
2022-07-31T09:03:42.042Z,3.05
2022-07-31T09:06:28.943Z,5.03
2022-07-31T09:09:03.026Z,1.25
2022-07-31T09:11:58.010Z,1.73
2022-07-31T09:14:46.977Z,1.63
2022-07-31T09:17:53.824Z,1.33
2022-07-31T09:20:40.977Z,3.08
2022-07-31T09:23:16.067Z,2.28
2022-07-31T09:26:04.009Z,2.45
2022-07-31T09:28:40.065Z,5.75
2022-07-31T09:31:26.982Z,2.45
2022-07-31T09:34:07.981Z,2.10
2022-07-31T09:36:48.771Z,4.43
2022-07-31T09:39:36.997Z,4.00
2022-07-31T09:42:45.715Z,2.92
2022-07-31T09:45:48.054Z,7.15
2022-07-31T09:48:29.056Z,2.40
2022-07-31T09:51:12.071Z,2.80
2022-07-31T09:53:59.962Z,1.75
2022-07-31T09:56:48.008Z,2.38
2022-07-31T09:59:36.017Z,3.22
2022-07-31T10:02:17.000Z,1.40
2022-07-31T10:05:11.991Z,2.75
2022-07-31T10:08:02.988Z,1.95
2022-07-31T10:10:44.002Z,1.30
2022-07-31T10:13:38.645Z,5.90
2022-07-31T10:16:32.017Z,2.72
2022-07-31T10:19:17.986Z,4.28
2022-07-31T10:22:08.009Z,3.42
2022-07-31T10:24:51.077Z,2.25
2022-07-31T10:27:39.382Z,4.22
2022-07-31T10:30:26.026Z,2.45
2022-07-31T10:33:42.948Z,1.75
2022-07-31T10:36:34.039Z,4.60
2022-07-31T10:39:29.339Z,1.77
2022-07-31T10:42:37.997Z,2.47
2022-07-31T10:45:14.246Z,2.35
2022-07-31T10:48:06.030Z,6.20
2022-07-31T10:50:40.078Z,2.72
2022-07-31T10:53:41.454Z,1.50
2022-07-31T10:56:34.018Z,2.90
2022-07-31T10:59:07.989Z,2.45
2022-07-31T11:02:06.064Z,1.52
2022-07-31T11:04:40.553Z,2.28
2022-07-31T11:07:30.045Z,1.45
2022-07-31T11:10:24.022Z,4.70
2022-07-31T11:13:19.005Z,2.70
2022-07-31T11:16:03.904Z,1.75
2022-07-31T11:18:53.037Z,2.22
2022-07-31T11:21:51.021Z,1.90
2022-07-31T11:24:38.028Z,6.63
2022-07-31T11:27:13.127Z,7.53
2022-07-31T11:30:04.741Z,4.65
2022-07-31T11:32:47.175Z,4.30
2022-07-31T11:35:38.044Z,1.73
2022-07-31T11:38:19.087Z,2.80
2022-07-31T11:40:59.054Z,3.08
2022-07-31T11:43:47.042Z,3.47
2022-07-31T11:46:35.063Z,5.65
2022-07-31T11:49:38.910Z,2.67
2022-07-31T11:52:30.657Z,2.90
2022-07-31T11:55:27.059Z,1.98
2022-07-31T11:58:00.612Z,2.75
2022-07-31T12:00:47.062Z,2.83
2022-07-31T12:03:35.039Z,2.85
2022-07-31T12:06:17.121Z,1.77
2022-07-31T12:08:58.028Z,4.00
2022-07-31T12:11:46.045Z,2.72
2022-07-31T12:14:48.120Z,3.30
2022-07-31T12:17:36.055Z,3.03
2022-07-31T12:20:34.902Z,1.63
2022-07-31T12:23:40.409Z,3.63
2022-07-31T12:26:39.144Z,6.68
2022-07-31T12:29:16.113Z,3.05
2022-07-31T12:32:05.074Z,3.88
2022-07-31T12:34:50.073Z,8.15
2022-07-31T12:37:37.046Z,3.88
2022-07-31T12:40:19.090Z,4.38
2022-07-31T12:43:14.049Z,3.47
2022-07-31T12:46:01.057Z,3.22
2022-07-31T12:48:40.114Z,1.80
2022-07-31T12:51:46.659Z,3.17
2022-07-31T12:54:22.167Z,7.68
2022-07-31T12:57:11.055Z,6.13
2022-07-31T12:59:45.592Z,1.35
2022-07-31T13:02:32.072Z,1.45
2022-07-31T13:05:06.163Z,3.45
2022-07-31T13:07:53.082Z,3.50
2022-07-31T13:10:32.007Z,1.25
2022-07-31T13:13:19.108Z,7.43
2022-07-31T13:15:53.520Z,2.60
2022-07-31T13:18:42.106Z,2.58
2022-07-31T13:21:16.167Z,5.65
2022-07-31T13:24:04.097Z,3.20
2022-07-31T13:26:38.168Z,1.42
2022-07-31T13:29:27.086Z,2.05
2022-07-31T13:32:00.219Z,2.13
2022-07-31T13:34:47.101Z,1.98
2022-07-31T13:37:41.220Z,1.38
2022-07-31T13:40:51.078Z,1.40
2022-07-31T13:43:32.096Z,1.30
2022-07-31T13:46:19.107Z,2.17
2022-07-31T13:48:53.254Z,12.63
2022-07-31T13:51:41.102Z,3.33
2022-07-31T13:54:16.461Z,2.25
2022-07-31T13:57:04.119Z,3.85
2022-07-31T13:59:44.141Z,2.63
2022-07-31T14:02:38.121Z,2.97
2022-07-31T14:05:26.693Z,2.53
2022-07-31T14:08:32.962Z,1.15
2022-07-31T14:11:17.111Z,9.73
2022-07-31T14:13:51.293Z,1.23
2022-07-31T14:16:38.092Z,3.03
2022-07-31T14:19:19.115Z,3.15
2022-07-31T14:22:13.186Z,1.52
2022-07-31T14:25:00.137Z,7.70
2022-07-31T14:27:40.173Z,1.58
2022-07-31T14:30:22.150Z,3.85
2022-07-31T14:33:03.255Z,0.95
2022-07-31T14:35:44.150Z,2.05
2022-07-31T14:41:10.121Z,1.30
2022-07-31T14:43:51.107Z,2.10
2022-07-31T14:46:38.121Z,3.17
2022-07-31T14:49:19.199Z,6.38
2022-07-31T14:52:07.126Z,3.15
2022-07-31T14:54:47.102Z,4.72
2022-07-31T14:57:36.127Z,2.50
2022-07-31T15:00:21.112Z,11.02
2022-07-31T15:03:15.092Z,5.28
2022-07-31T15:06:41.706Z,6.97
2022-07-31T15:08:56.221Z,2.72
2022-07-31T15:12:00.165Z,3.85
2022-07-31T15:14:36.204Z,3.33
2022-07-31T15:17:23.143Z,2.38
2022-07-31T15:19:57.185Z,3.20
2022-07-31T15:22:45.145Z,2.45
2022-07-31T15:25:26.136Z,3.30
2022-07-31T15:28:20.123Z,7.13
2022-07-31T15:31:08.131Z,6.85
2022-07-31T15:33:49.126Z,4.05
2022-07-31T15:36:44.122Z,1.40
2022-07-31T15:39:32.165Z,1.42
2022-07-31T15:42:06.287Z,3.25
2022-07-31T15:44:53.162Z,1.83
2022-07-31T15:47:27.212Z,2.63
2022-07-31T15:50:16.149Z,4.90
2022-07-31T15:52:50.248Z,1.75
2022-07-31T15:55:37.149Z,3.53
2022-07-31T15:58:18.148Z,1.98
2022-07-31T16:01:12.161Z,3.63
2022-07-31T16:03:59.495Z,2.70
2022-07-31T16:06:33.221Z,1.45
2022-07-31T16:09:21.164Z,2.83
2022-07-31T16:12:03.908Z,2.78
2022-07-31T16:14:59.122Z,3.15
2022-07-31T16:17:47.142Z,1.60
2022-07-31T16:20:34.173Z,3.72
2022-07-31T16:23:22.167Z,3.05
2022-07-31T16:26:03.138Z,10.25
2022-07-31T16:28:57.159Z,3.42
2022-07-31T16:31:44.167Z,2.53
2022-07-31T16:34:25.231Z,5.43
2022-07-31T16:37:05.425Z,2.53
2022-07-31T16:39:53.163Z,3.95
2022-07-31T16:42:34.225Z,3.92
2022-07-31T16:45:15.273Z,3.72
2022-07-31T16:47:56.167Z,4.03
2022-07-31T16:50:37.266Z,5.20
2022-07-31T16:54:13.101Z,2.75
2022-07-31T16:56:25.190Z,4.78
2022-07-31T16:59:08.194Z,1.90
2022-07-31T17:01:58.122Z,2.85
2022-07-31T17:04:42.161Z,3.33
2022-07-31T17:07:22.283Z,3.72
2022-07-31T17:10:02.171Z,4.85
2022-07-31T17:12:49.174Z,1.58
2022-07-31T17:15:23.496Z,2.33
2022-07-31T17:18:11.178Z,3.20
2022-07-31T17:21:07.194Z,3.67
2022-07-31T17:23:57.172Z,5.95
2022-07-31T17:26:33.258Z,4.43
2022-07-31T17:29:20.185Z,1.85
2022-07-31T17:32:01.183Z,43.33
2022-07-31T17:34:56.169Z,8.35
2022-07-31T17:37:43.175Z,10.85
2022-07-31T17:40:42.093Z,18.00
2022-07-31T17:43:27.727Z,33.95
2022-07-31T17:46:08.526Z,13.25
2022-07-31T17:49:04.286Z,15.05
2022-07-31T17:51:59.457Z,14.48
2022-07-31T17:54:54.193Z,14.97
2022-07-31T17:57:42.191Z,17.90
2022-07-31T18:00:23.218Z,21.75
2022-07-31T18:03:07.196Z,24.65
2022-07-31T18:05:47.307Z,26.13
2022-07-31T18:08:27.192Z,38.55
2022-07-31T18:11:08.361Z,21.10
2022-07-31T18:13:51.742Z,50.17
2022-07-31T18:16:36.203Z,21.17
2022-07-31T18:19:17.222Z,47.88
2022-07-31T18:22:06.571Z,10.38
2022-07-31T18:24:40.327Z,10.90
2022-07-31T18:27:27.198Z,18.02
2022-07-31T18:30:08.231Z,27.63
2022-07-31T18:32:55.218Z,10.82
2022-07-31T18:35:36.207Z,9.73
2022-07-31T18:38:23.229Z,4.13
2022-07-31T18:40:57.304Z,5.85
2022-07-31T18:43:44.224Z,10.63
2022-07-31T18:46:32.273Z,6.57
2022-07-31T18:49:07.712Z,5.18
2022-07-31T18:52:14.218Z,3.15
2022-07-31T18:54:54.053Z,5.22
2022-07-31T18:57:42.221Z,3.28
2022-07-31T19:00:22.213Z,2.95
2022-07-31T19:03:04.465Z,5.57
2022-07-31T19:05:45.203Z,33.05
2022-07-31T19:08:26.306Z,13.95
2022-07-31T19:11:06.220Z,8.80
2022-07-31T19:13:54.214Z,7.80
2022-07-31T19:16:35.265Z,14.13
2022-07-31T19:19:24.239Z,7.05
2022-07-31T19:22:22.231Z,5.78
2022-07-31T19:25:09.254Z,11.77
2022-07-31T19:27:48.227Z,15.00
2022-07-31T19:30:37.241Z,16.98
2022-07-31T19:33:12.399Z,8.60
2022-07-31T19:36:07.255Z,15.88
2022-07-31T19:38:51.246Z,12.00
2022-07-31T19:42:11.507Z,13.05
2022-07-31T19:44:59.245Z,11.70
2022-07-31T19:47:47.226Z,12.25
2022-07-31T19:50:21.351Z,10.43
2022-07-31T19:53:08.226Z,12.80
2022-07-31T19:55:42.363Z,13.88
2022-07-31T19:58:30.234Z,8.25
2022-07-31T20:01:04.410Z,8.27
2022-07-31T20:03:51.350Z,7.78
2022-07-31T20:06:28.144Z,19.70
2022-07-31T20:09:15.267Z,29.42
2022-07-31T20:11:49.316Z,45.40
2022-07-31T20:14:36.239Z,57.00
2022-07-31T20:17:17.258Z,63.90
2022-07-31T20:20:15.271Z,51.42
2022-07-31T20:23:03.290Z,26.15
2022-07-31T20:25:43.334Z,18.30
2022-07-31T20:28:24.280Z,12.95
2022-07-31T20:31:05.338Z,6.88
2022-07-31T20:33:57.602Z,8.63
2022-07-31T20:36:39.277Z,12.77
2022-07-31T20:39:22.483Z,9.15
2022-07-31T20:42:12.292Z,7.82
2022-07-31T20:44:46.425Z,5.53
2022-07-31T20:47:33.266Z,7.28
2022-07-31T20:50:08.171Z,10.82
2022-07-31T20:52:55.274Z,13.57
2022-07-31T20:55:36.290Z,6.93
2022-07-31T20:58:35.262Z,6.07
2022-07-31T21:01:22.330Z,4.93
2022-07-31T21:04:03.274Z,3.92
2022-07-31T21:06:57.264Z,8.07
2022-07-31T21:09:46.280Z,11.35
2022-07-31T21:12:20.332Z,8.13
2022-07-31T21:15:07.285Z,5.95
2022-07-31T21:18:08.283Z,7.95
2022-07-31T21:20:57.303Z,9.55
2022-07-31T21:23:39.264Z,15.80
2022-07-31T21:26:28.292Z,11.77
2022-07-31T21:29:09.291Z,5.38
2022-07-31T21:31:57.288Z,5.47
2022-07-31T21:34:31.411Z,5.85
2022-07-31T21:37:19.271Z,4.22
2022-07-31T21:39:57.418Z,3.50
2022-07-31T21:42:45.281Z,4.63
2022-07-31T21:45:30.363Z,3.13
2022-07-31T21:48:27.288Z,8.52
2022-07-31T21:51:16.295Z,4.07
2022-07-31T21:53:50.232Z,4.70
2022-07-31T21:56:46.285Z,5.50
2022-07-31T21:59:34.303Z,6.90
2022-07-31T22:02:08.447Z,4.57
2022-07-31T22:05:14.335Z,7.53
2022-07-31T22:07:49.419Z,4.75
2022-07-31T22:10:36.284Z,7.32
2022-07-31T22:13:17.326Z,7.38
2022-07-31T22:16:11.334Z,4.18
2022-07-31T22:19:06.284Z,6.50
2022-07-31T22:21:54.337Z,6.25
2022-07-31T22:24:28.498Z,3.60
2022-07-31T22:27:34.311Z,4.28
2022-07-31T22:30:15.288Z,6.05
2022-07-31T22:33:11.308Z,4.75
2022-07-31T22:36:00.827Z,4.25
2022-07-31T22:38:44.314Z,4.47
2022-07-31T22:41:38.275Z,5.15
2022-07-31T22:44:26.324Z,9.40
2022-07-31T22:47:01.394Z,4.25
2022-07-31T22:49:50.312Z,6.00
2022-07-31T22:52:34.655Z,6.95
2022-07-31T22:55:30.286Z,5.15
2022-07-31T22:58:21.342Z,6.13
2022-07-31T23:00:55.388Z,4.60
2022-07-31T23:03:42.346Z,6.15
2022-07-31T23:06:32.189Z,7.75
2022-07-31T23:09:19.328Z,8.15
2022-07-31T23:11:52.404Z,11.25
2022-07-31T23:14:39.339Z,6.65
2022-07-31T23:17:23.152Z,6.07
2022-07-31T23:20:18.320Z,8.40
2022-07-31T23:23:05.371Z,6.07
2022-07-31T23:25:46.329Z,6.13
2022-07-31T23:28:34.338Z,6.63
2022-07-31T23:31:08.404Z,7.55
2022-07-31T23:33:56.348Z,5.05
2022-07-31T23:36:30.425Z,16.48
2022-07-31T23:39:19.352Z,4.60
2022-07-31T23:42:19.346Z,4.32
2022-07-31T23:45:07.340Z,4.97
2022-07-31T23:47:52.345Z,7.10
2022-07-31T23:50:46.351Z,5.30
2022-07-31T23:53:33.368Z,4.05
2022-07-31T23:56:19.476Z,5.63
2022-07-31T23:59:13.352Z,5.13
